createdAt,value
2024-05-09T00:10:41.539Z,23.16
2024-05-09T00:11:41.093Z,23.22
2024-05-09T00:12:40.942Z,23.18
2024-05-09T00:13:40.965Z,23.18
2024-05-09T00:14:41.147Z,23.15
2024-05-09T00:15:41.017Z,23.18
2024-05-09T00:16:41.407Z,23.15
2024-05-09T00:17:41.522Z,23.16
2024-05-09T00:18:41.168Z,23.16
2024-05-09T00:19:41.129Z,23.15
2024-05-09T00:20:41.598Z,23.23
2024-05-09T00:21:41.191Z,23.15
2024-05-09T00:22:41.230Z,23.22
2024-05-09T00:23:41.763Z,23.22
2024-05-09T00:24:41.290Z,23.21
2024-05-09T00:25:41.329Z,23.15
2024-05-09T00:26:41.433Z,23.15
2024-05-09T00:27:41.376Z,23.14
2024-05-09T00:28:41.406Z,23.16
2024-05-09T00:29:41.431Z,23.16
2024-05-09T00:30:41.806Z,23.16
2024-05-09T00:31:41.492Z,23.14
2024-05-09T00:32:41.920Z,23.15
2024-05-09T00:33:41.790Z,23.18
2024-05-09T00:34:41.587Z,23.18
2024-05-09T00:35:41.774Z,23.18
2024-05-09T00:36:41.638Z,23.16
2024-05-09T00:37:42.455Z,23.16
2024-05-09T00:38:41.761Z,23.21
2024-05-09T00:39:41.730Z,23.19
2024-05-09T00:40:43.408Z,23.15
2024-05-09T00:41:41.822Z,23.14
2024-05-09T00:42:41.830Z,23.18
2024-05-09T00:43:42.191Z,23.14
2024-05-09T00:44:41.893Z,23.21
2024-05-09T00:45:41.936Z,23.16
2024-05-09T00:46:41.955Z,23.21
2024-05-09T00:47:42.201Z,23.18
2024-05-09T00:48:42.071Z,23.16
2024-05-09T00:49:42.579Z,23.19
2024-05-09T00:50:42.399Z,23.22
2024-05-09T00:51:42.132Z,23.15
2024-05-09T00:52:42.160Z,23.21
2024-05-09T00:53:42.183Z,23.14
2024-05-09T00:54:42.307Z,23.22
2024-05-09T00:55:42.242Z,23.15
2024-05-09T00:56:42.249Z,23.21
2024-05-09T00:57:42.278Z,23.25
2024-05-09T00:58:42.385Z,23.23
2024-05-09T01:00:42.373Z,23.22
2024-05-09T01:01:42.991Z,23.16
2024-05-09T01:02:42.504Z,23.21
2024-05-09T01:03:42.569Z,23.23
2024-05-09T01:04:42.561Z,23.23
2024-05-09T01:05:43.211Z,23.21
2024-05-09T01:06:42.548Z,23.21
2024-05-09T01:07:42.633Z,23.15
2024-05-09T01:08:42.939Z,23.21
2024-05-09T01:09:42.647Z,23.22
2024-05-09T01:10:45.079Z,23.23
2024-05-09T01:11:42.810Z,23.16
2024-05-09T01:12:42.730Z,23.21
2024-05-09T01:13:42.777Z,23.18
2024-05-09T01:14:42.809Z,23.21
2024-05-09T01:15:43.121Z,23.15
2024-05-09T01:16:42.907Z,23.18
2024-05-09T01:17:43.101Z,23.15
2024-05-09T01:18:43.051Z,23.23
2024-05-09T01:19:43.130Z,23.19
2024-05-09T01:20:44.905Z,23.16
2024-05-09T01:21:43.028Z,23.12
2024-05-09T01:22:43.379Z,23.21
2024-05-09T01:23:43.120Z,23.14
2024-05-09T01:24:43.099Z,23.15
2024-05-09T01:25:43.335Z,23.15
2024-05-09T01:26:43.170Z,23.15
2024-05-09T01:27:43.191Z,23.18
2024-05-09T01:28:43.312Z,23.18
2024-05-09T01:29:43.516Z,23.16
2024-05-09T01:30:43.444Z,23.14
2024-05-09T01:31:43.469Z,23.15
2024-05-09T01:32:43.625Z,23.15
2024-05-09T01:33:43.604Z,23.18
2024-05-09T01:34:43.415Z,23.19
2024-05-09T01:35:43.583Z,23.22
2024-05-09T01:37:43.761Z,23.15
2024-05-09T01:38:43.576Z,23.15
2024-05-09T01:39:43.566Z,23.14
2024-05-09T01:40:43.630Z,23.14
2024-05-09T01:41:43.636Z,23.16
2024-05-09T01:42:43.655Z,23.18
2024-05-09T01:43:43.733Z,23.16
2024-05-09T01:44:43.967Z,23.18
2024-05-09T01:45:43.778Z,23.19
2024-05-09T01:46:43.864Z,23.22
2024-05-09T01:47:43.903Z,23.23
2024-05-09T01:48:43.940Z,23.18
2024-05-09T01:49:43.985Z,23.18
2024-05-09T01:50:44.011Z,23.18
2024-05-09T01:51:44.329Z,23.15
2024-05-09T01:52:44.042Z,23.18
2024-05-09T01:53:44.088Z,23.12
2024-05-09T01:54:44.034Z,23.21
2024-05-09T01:55:44.213Z,23.21
2024-05-09T01:56:44.093Z,23.22
2024-05-09T01:57:44.118Z,23.18
2024-05-09T01:58:44.501Z,23.18
2024-05-09T01:59:44.171Z,23.09
2024-05-09T02:00:44.323Z,23.16
2024-05-09T02:01:56.306Z,23.14
2024-05-09T02:02:44.398Z,23.16
2024-05-09T02:03:44.485Z,23.12
2024-05-09T02:04:44.446Z,23.18
2024-05-09T02:05:45.112Z,23.19
2024-05-09T02:06:44.386Z,23.16
2024-05-09T02:07:44.474Z,23.16
2024-05-09T02:08:44.479Z,23.19
2024-05-09T02:09:44.482Z,23.26
2024-05-09T02:10:44.873Z,23.18
2024-05-09T02:11:44.620Z,23.15
2024-05-09T02:12:44.871Z,23.16
2024-05-09T02:13:44.689Z,23.18
2024-05-09T02:14:44.634Z,23.16
2024-05-09T02:15:44.813Z,23.09
2024-05-09T02:16:44.770Z,23.06
2024-05-09T02:17:45.032Z,23.03
2024-05-09T02:18:44.913Z,23.22
2024-05-09T02:19:45.112Z,23.18
2024-05-09T02:20:44.931Z,23.06
2024-05-09T02:21:44.846Z,23.09
2024-05-09T02:22:44.926Z,23.07
2024-05-09T02:23:44.969Z,23.16
2024-05-09T02:24:45.550Z,23.15
2024-05-09T02:25:44.961Z,23.18
2024-05-09T02:26:45.263Z,23.06
2024-05-09T02:27:45.030Z,23.22
2024-05-09T02:28:45.071Z,23.06
2024-05-09T02:29:45.112Z,23.15
2024-05-09T02:30:45.124Z,23.15
2024-05-09T02:31:45.372Z,23.09
2024-05-09T02:32:45.733Z,23.12
2024-05-09T02:33:45.425Z,23.06
2024-05-09T02:34:45.305Z,23.04
2024-05-09T02:35:45.320Z,23.06
2024-05-09T02:36:45.304Z,23.03
2024-05-09T02:37:45.844Z,23.12
2024-05-09T02:38:45.639Z,23.11
2024-05-09T02:39:45.504Z,23.07
2024-05-09T02:40:46.036Z,23.09
2024-05-09T02:41:45.464Z,23.12
2024-05-09T02:42:45.483Z,23.06
2024-05-09T02:43:45.695Z,23.12
2024-05-09T02:44:45.800Z,23.01
2024-05-09T02:45:45.585Z,23.11
2024-05-09T02:46:45.753Z,23.14
2024-05-09T02:47:45.866Z,23.09
2024-05-09T02:48:45.904Z,23.04
2024-05-09T02:49:45.736Z,23.14
2024-05-09T02:50:45.803Z,23.09
2024-05-09T02:51:46.012Z,23.03
2024-05-09T02:53:46.107Z,23.09
2024-05-09T02:54:45.869Z,22.97
2024-05-09T02:55:45.910Z,23.03
2024-05-09T02:56:45.918Z,23.01
2024-05-09T02:57:45.957Z,22.99
2024-05-09T02:58:46.387Z,23.04
2024-05-09T02:59:46.037Z,23.11
2024-05-09T03:00:46.079Z,23.09
2024-05-09T03:01:46.185Z,23.06
2024-05-09T03:02:46.192Z,23.04
2024-05-09T03:15:10.212Z,23.04
2024-05-09T03:16:10.226Z,23.00
2024-05-09T03:17:10.771Z,23.06
2024-05-09T03:19:10.874Z,23.03
2024-05-09T03:21:10.532Z,22.94
2024-05-09T03:22:10.397Z,23.09
2024-05-09T03:23:10.654Z,23.09
2024-05-09T03:24:10.464Z,23.01
2024-05-09T03:25:10.790Z,23.09
2024-05-09T03:26:10.847Z,23.04
2024-05-09T03:27:10.562Z,23.00
2024-05-09T03:28:10.624Z,22.93
2024-05-09T03:29:10.926Z,23.03
2024-05-09T03:30:15.479Z,23.01
2024-05-09T03:31:10.678Z,22.99
2024-05-09T03:32:10.826Z,22.97
2024-05-09T03:33:11.006Z,23.01
2024-05-09T03:34:10.839Z,22.96
2024-05-09T03:35:10.823Z,22.99
2024-05-09T03:36:11.480Z,22.99
2024-05-09T03:39:10.917Z,22.96
2024-05-09T03:40:17.696Z,22.99
2024-05-09T03:41:10.995Z,23.01
2024-05-09T03:42:11.030Z,23.01
2024-05-09T03:43:11.041Z,22.91
2024-05-09T03:45:11.090Z,22.99
2024-05-09T03:46:11.127Z,22.97
2024-05-09T03:47:11.206Z,23.03
2024-05-09T03:48:11.595Z,22.96
2024-05-09T03:49:11.298Z,22.97
2024-05-09T03:50:18.322Z,23.00
2024-05-09T03:51:11.320Z,23.00
2024-05-09T03:52:11.635Z,22.99
2024-05-09T03:53:11.707Z,23.00
2024-05-09T03:54:11.369Z,23.01
2024-05-09T03:55:11.411Z,22.99
2024-05-09T03:56:11.473Z,22.93
2024-05-09T03:57:11.455Z,22.99
2024-05-09T03:58:11.499Z,22.97
2024-05-09T03:59:11.864Z,23.03
2024-05-09T04:01:11.644Z,23.00
2024-05-09T04:02:11.682Z,22.93
2024-05-09T04:03:13.153Z,23.01
2024-05-09T04:05:11.739Z,22.99
2024-05-09T04:06:12.030Z,22.96
2024-05-09T04:07:11.773Z,22.99
2024-05-09T04:08:11.974Z,23.00
2024-05-09T04:09:11.817Z,22.97
2024-05-09T04:10:20.943Z,23.00
2024-05-09T04:11:11.965Z,22.96
2024-05-09T04:12:12.006Z,22.99
2024-05-09T04:13:12.240Z,22.96
2024-05-09T04:14:12.033Z,23.00
2024-05-09T04:15:13.638Z,22.96
2024-05-09T04:16:12.055Z,23.01
2024-05-09T04:17:12.087Z,22.99
2024-05-09T04:18:12.187Z,22.93
2024-05-09T04:19:12.209Z,23.04
2024-05-09T04:20:21.353Z,22.97
2024-05-09T04:21:12.552Z,22.97
2024-05-09T04:22:12.213Z,22.97
2024-05-09T04:23:12.830Z,22.96
2024-05-09T04:24:12.272Z,22.99
2024-05-09T04:25:12.305Z,22.96
2024-05-09T04:26:12.699Z,22.94
2024-05-09T04:27:12.367Z,22.91
2024-05-09T04:28:12.397Z,22.97
2024-05-09T04:29:12.511Z,22.99
2024-05-09T04:30:21.576Z,22.94
2024-05-09T04:31:12.487Z,23.04
2024-05-09T04:32:12.752Z,22.93
2024-05-09T04:33:14.350Z,22.93
2024-05-09T04:34:13.058Z,22.97
2024-05-09T04:35:12.773Z,23.06
2024-05-09T04:36:12.793Z,22.99
2024-05-09T04:37:12.818Z,22.96
2024-05-09T04:38:13.617Z,22.96
2024-05-09T04:39:12.807Z,22.93
2024-05-09T04:40:24.042Z,22.97
2024-05-09T04:41:12.860Z,22.99
2024-05-09T04:42:12.825Z,23.00
2024-05-09T04:43:12.857Z,22.97
2024-05-09T04:44:12.999Z,22.96
2024-05-09T04:45:12.915Z,22.96
2024-05-09T04:46:13.196Z,22.97
2024-05-09T04:47:13.194Z,23.01
2024-05-09T04:48:13.340Z,23.01
2024-05-09T04:49:13.249Z,22.96
2024-05-09T04:50:21.154Z,22.99
2024-05-09T04:51:13.164Z,22.99
2024-05-09T04:52:13.371Z,22.99
2024-05-09T04:53:13.183Z,22.97
2024-05-09T04:54:25.730Z,23.01
2024-05-09T04:55:13.213Z,22.99
2024-05-09T04:56:13.372Z,22.99
2024-05-09T04:57:13.376Z,22.96
2024-05-09T04:58:13.305Z,23.00
2024-05-09T04:59:13.357Z,23.00
2024-05-09T05:00:15.004Z,22.97
2024-05-09T05:01:13.410Z,23.01
2024-05-09T05:02:13.554Z,22.96
2024-05-09T05:03:15.674Z,22.96
2024-05-09T05:04:13.837Z,23.01
2024-05-09T05:05:13.593Z,23.00
2024-05-09T05:06:13.546Z,23.01
2024-05-09T05:07:13.596Z,23.00
2024-05-09T05:08:14.093Z,22.99
2024-05-09T05:10:21.412Z,22.99
2024-05-09T05:11:13.879Z,23.07
2024-05-09T05:12:13.851Z,22.99
2024-05-09T05:13:13.767Z,23.00
2024-05-09T05:14:13.860Z,22.99
2024-05-09T05:15:13.818Z,23.01
2024-05-09T05:16:13.848Z,23.03
2024-05-09T05:17:14.315Z,23.00
2024-05-09T05:18:14.025Z,22.97
2024-05-09T05:19:16.959Z,23.06
2024-05-09T05:20:17.929Z,23.00
2024-05-09T05:21:14.038Z,23.04
2024-05-09T05:22:14.033Z,23.03
2024-05-09T05:23:14.484Z,23.03
2024-05-09T05:24:14.341Z,23.00
2024-05-09T05:25:14.119Z,23.01
2024-05-09T05:26:14.230Z,23.04
2024-05-09T05:27:14.182Z,23.00
2024-05-09T05:28:14.217Z,23.04
2024-05-09T05:29:15.959Z,23.04
2024-05-09T05:30:21.195Z,23.07
2024-05-09T05:31:14.323Z,22.99
2024-05-09T05:32:14.517Z,23.07
2024-05-09T05:33:14.718Z,23.00
2024-05-09T05:34:14.404Z,23.00
2024-05-09T05:35:14.573Z,23.01
2024-05-09T05:36:14.467Z,23.06
2024-05-09T05:37:14.789Z,23.07
2024-05-09T05:38:14.621Z,23.04
2024-05-09T05:39:14.568Z,23.01
2024-05-09T05:40:20.911Z,23.01
2024-05-09T05:41:14.699Z,23.07
2024-05-09T05:42:14.634Z,22.97
2024-05-09T05:43:14.921Z,23.04
2024-05-09T05:44:15.201Z,23.04
2024-05-09T05:45:14.741Z,23.09
2024-05-09T05:46:14.759Z,23.07
2024-05-09T05:48:14.933Z,23.03
2024-05-09T05:49:15.022Z,23.09
2024-05-09T05:50:24.422Z,23.09
2024-05-09T05:51:14.982Z,23.03
2024-05-09T05:52:14.947Z,23.06
2024-05-09T05:53:15.096Z,23.07
2024-05-09T05:54:15.015Z,23.11
2024-05-09T05:55:15.089Z,23.09
2024-05-09T05:56:15.411Z,23.06
2024-05-09T05:57:15.099Z,23.04
2024-05-09T05:58:15.218Z,23.07
2024-05-09T05:59:15.697Z,23.12
2024-05-09T06:00:25.310Z,23.12
2024-05-09T06:01:15.255Z,23.14
2024-05-09T06:02:15.468Z,23.11
2024-05-09T06:03:15.669Z,23.11
2024-05-09T06:04:15.386Z,23.12
2024-05-09T06:05:15.381Z,23.11
2024-05-09T06:06:15.380Z,23.07
2024-05-09T06:07:15.407Z,23.11
2024-05-09T06:08:15.540Z,23.06
2024-05-09T06:09:15.485Z,23.15
2024-05-09T06:10:21.348Z,23.04
2024-05-09T06:11:15.671Z,23.22
2024-05-09T06:12:15.706Z,23.06
2024-05-09T06:13:15.739Z,23.09
2024-05-09T06:14:15.631Z,23.11
2024-05-09T06:15:15.653Z,23.15
2024-05-09T06:16:15.678Z,23.15
2024-05-09T06:17:16.132Z,23.12
2024-05-09T06:18:16.032Z,23.09
2024-05-09T06:19:15.881Z,23.15
2024-05-09T06:20:20.788Z,23.14
2024-05-09T06:21:15.997Z,23.18
2024-05-09T06:22:15.855Z,23.14
2024-05-09T06:23:15.922Z,23.23
2024-05-09T06:24:16.171Z,23.21
2024-05-09T06:25:15.961Z,23.15
2024-05-09T06:26:16.112Z,23.21
2024-05-09T06:27:16.027Z,23.19
2024-05-09T06:28:16.041Z,23.16
2024-05-09T06:29:16.169Z,23.21
2024-05-09T06:30:25.700Z,23.23
2024-05-09T06:31:17.834Z,23.15
2024-05-09T06:32:17.828Z,23.21
2024-05-09T06:33:17.424Z,23.23
2024-05-09T06:34:17.247Z,23.23
2024-05-09T06:35:17.376Z,23.22
2024-05-09T06:36:16.288Z,23.25
2024-05-09T06:37:16.311Z,23.23
2024-05-09T06:38:16.701Z,23.31
2024-05-09T06:39:16.384Z,23.26
2024-05-09T06:40:21.244Z,23.25
2024-05-09T06:41:16.547Z,23.31
2024-05-09T06:42:16.467Z,23.26
2024-05-09T06:43:18.646Z,23.25
2024-05-09T06:44:16.595Z,23.25
2024-05-09T06:45:16.875Z,23.34
2024-05-09T06:46:16.589Z,23.32
2024-05-09T06:47:16.716Z,23.38
2024-05-09T06:48:16.867Z,23.32
2024-05-09T06:50:23.786Z,23.31
2024-05-09T06:52:17.080Z,23.34
2024-05-09T06:53:16.976Z,23.29
2024-05-09T06:54:16.833Z,23.29
2024-05-09T06:55:16.862Z,23.34
2024-05-09T06:56:16.975Z,23.31
2024-05-09T06:57:16.926Z,23.37
2024-05-09T06:58:16.986Z,23.34
2024-05-09T06:59:17.275Z,23.31
2024-05-09T07:00:23.092Z,23.26
2024-05-09T07:01:17.218Z,23.38
2024-05-09T07:02:17.148Z,23.37
2024-05-09T07:03:18.772Z,23.35
2024-05-09T07:04:17.326Z,23.44
2024-05-09T07:05:17.305Z,23.37
2024-05-09T07:06:17.532Z,23.32
2024-05-09T07:07:17.233Z,23.44
2024-05-09T07:08:17.384Z,23.41
2024-05-09T07:09:17.326Z,23.42
2024-05-09T07:10:22.181Z,23.44
2024-05-09T07:11:17.416Z,23.47
2024-05-09T07:12:17.617Z,23.45
2024-05-09T07:13:17.680Z,23.44
2024-05-09T07:15:17.494Z,23.42
2024-05-09T07:16:17.512Z,23.47
2024-05-09T07:17:17.642Z,23.47
2024-05-09T07:18:18.870Z,23.49
2024-05-09T07:19:17.782Z,23.45
2024-05-09T07:20:23.685Z,23.47
2024-05-09T07:21:17.804Z,23.45
2024-05-09T07:22:17.740Z,23.44
2024-05-09T07:23:17.886Z,23.44
2024-05-09T07:24:17.752Z,23.42
2024-05-09T07:25:17.792Z,23.44
2024-05-09T07:26:18.319Z,23.47
2024-05-09T07:27:17.848Z,23.47
2024-05-09T07:28:17.951Z,23.53
2024-05-09T07:29:17.993Z,23.56
2024-05-09T07:30:23.561Z,23.53
2024-05-09T07:31:17.982Z,23.56
2024-05-09T07:32:18.425Z,23.54
2024-05-09T07:33:18.375Z,23.54
2024-05-09T07:34:18.163Z,23.52
2024-05-09T07:35:18.219Z,23.53
2024-05-09T07:36:18.120Z,23.53
2024-05-09T07:37:18.160Z,23.60
2024-05-09T07:38:18.563Z,23.57
2024-05-09T07:39:18.214Z,23.59
2024-05-09T07:40:28.200Z,23.54
2024-05-09T07:41:18.338Z,23.64
2024-05-09T07:42:18.303Z,23.52
2024-05-09T07:43:18.473Z,23.60
2024-05-09T07:44:18.431Z,23.60
2024-05-09T07:45:40.229Z,23.62
2024-05-09T07:47:14.413Z,23.59
2024-05-09T07:48:29.034Z,23.62
2024-05-09T07:51:31.677Z,23.59
2024-05-09T07:52:49.256Z,23.63
2024-05-09T07:53:38.346Z,23.67
2024-05-09T07:54:18.988Z,23.60
2024-05-09T07:56:20.129Z,23.63
2024-05-09T07:57:18.845Z,23.68
2024-05-09T07:58:18.812Z,23.69
2024-05-09T07:59:19.097Z,23.62
2024-05-09T08:00:23.730Z,23.62
2024-05-09T08:01:19.168Z,23.62
2024-05-09T08:02:19.092Z,23.62
2024-05-09T08:03:19.016Z,23.59
2024-05-09T08:04:19.045Z,23.63
2024-05-09T08:05:19.189Z,23.64
2024-05-09T08:06:19.435Z,23.67
2024-05-09T08:07:19.138Z,23.64
2024-05-09T08:08:19.138Z,23.64
2024-05-09T08:09:21.166Z,23.64
2024-05-09T08:10:24.450Z,23.68
2024-05-09T08:11:19.268Z,23.67
2024-05-09T08:12:19.248Z,23.71
2024-05-09T08:13:19.620Z,23.72
2024-05-09T08:14:19.303Z,23.72
2024-05-09T08:15:19.401Z,23.75
2024-05-09T08:16:19.561Z,23.67
2024-05-09T08:17:19.434Z,23.71
2024-05-09T08:18:19.505Z,23.77
2024-05-09T08:19:19.551Z,23.78
2024-05-09T08:20:26.975Z,23.77
2024-05-09T08:21:19.545Z,23.78
2024-05-09T08:22:19.612Z,23.78
2024-05-09T08:23:19.701Z,23.75
2024-05-09T08:24:19.615Z,23.71
2024-05-09T08:25:19.739Z,23.75
2024-05-09T08:26:19.970Z,23.69
2024-05-09T08:27:19.709Z,23.75
2024-05-09T08:28:19.889Z,23.75
2024-05-09T08:29:19.770Z,23.87
2024-05-09T08:30:25.296Z,23.78
2024-05-09T08:31:19.916Z,23.86
2024-05-09T08:32:19.894Z,23.86
2024-05-09T08:33:20.395Z,23.84
2024-05-09T08:34:20.226Z,23.89
2024-05-09T08:35:19.966Z,23.84
2024-05-09T08:36:19.977Z,23.93
2024-05-09T08:37:23.388Z,23.92
2024-05-09T08:38:20.041Z,23.93
2024-05-09T08:39:20.073Z,23.93
2024-05-09T08:40:28.115Z,23.93
2024-05-09T08:41:20.141Z,23.93
2024-05-09T08:42:20.172Z,23.92
2024-05-09T08:43:20.509Z,23.87
2024-05-09T08:44:20.252Z,23.86
2024-05-09T08:45:20.267Z,23.92
2024-05-09T08:46:20.546Z,23.92
2024-05-09T08:47:20.355Z,23.92
2024-05-09T08:48:20.531Z,23.84
2024-05-09T08:49:20.603Z,23.97
2024-05-09T08:50:29.214Z,23.94
2024-05-09T08:51:20.459Z,24.00
2024-05-09T08:52:20.492Z,23.93
2024-05-09T08:53:20.832Z,24.04
2024-05-09T08:54:20.545Z,23.99
2024-05-09T08:55:20.796Z,23.99
2024-05-09T08:56:20.613Z,23.99
2024-05-09T08:57:20.640Z,24.00
2024-05-09T08:58:20.866Z,24.02
2024-05-09T08:59:20.955Z,24.00
2024-05-09T09:00:29.604Z,24.04
2024-05-09T09:01:20.873Z,24.05
2024-05-09T09:02:21.071Z,24.08
2024-05-09T09:03:20.894Z,24.08
2024-05-09T09:05:21.342Z,24.09
2024-05-09T09:06:20.931Z,24.06
2024-05-09T09:08:20.992Z,24.06
2024-05-09T09:09:21.013Z,24.08
2024-05-09T09:10:28.837Z,24.14
2024-05-09T09:11:21.134Z,24.15
2024-05-09T09:13:21.524Z,24.09
2024-05-09T09:14:21.179Z,24.16
2024-05-09T09:15:21.203Z,24.15
2024-05-09T09:16:21.307Z,24.06
2024-05-09T09:17:21.281Z,24.11
2024-05-09T09:18:21.359Z,24.12
2024-05-09T09:19:21.586Z,24.15
2024-05-09T09:20:26.513Z,24.18
2024-05-09T09:21:21.396Z,24.16
2024-05-09T09:22:21.464Z,24.16
2024-05-09T09:23:21.460Z,24.18
2024-05-09T09:24:21.510Z,24.18
2024-05-09T09:25:21.525Z,24.24
2024-05-09T09:26:21.547Z,24.16
2024-05-09T09:27:21.617Z,24.18
2024-05-09T09:28:21.622Z,24.18
2024-05-09T09:29:21.641Z,24.21
2024-05-09T09:30:34.032Z,24.23
2024-05-09T09:31:22.028Z,24.21
2024-05-09T09:32:21.777Z,24.31
2024-05-09T09:33:21.899Z,24.30
2024-05-09T09:34:21.927Z,24.21
2024-05-09T09:35:21.854Z,24.18
2024-05-09T09:36:21.865Z,24.19
2024-05-09T09:37:21.900Z,24.24
2024-05-09T09:38:22.204Z,24.26
2024-05-09T09:39:21.965Z,24.18
2024-05-09T09:40:22.406Z,24.33
2024-05-09T09:42:22.068Z,24.29
2024-05-09T09:43:22.710Z,24.23
2024-05-09T09:44:22.372Z,24.27
2024-05-09T09:45:22.221Z,24.30
2024-05-09T09:46:22.240Z,24.30
2024-05-09T09:47:22.297Z,24.34
2024-05-09T09:48:22.988Z,24.31
2024-05-09T09:49:22.317Z,24.30
2024-05-09T09:50:27.748Z,24.34
2024-05-09T09:51:22.370Z,24.34
2024-05-09T09:52:22.482Z,24.33
2024-05-09T09:53:22.399Z,24.33
2024-05-09T09:54:22.545Z,24.31
2024-05-09T09:55:22.566Z,24.34
2024-05-09T09:56:22.805Z,24.31
2024-05-09T09:57:22.539Z,24.36
2024-05-09T09:58:22.693Z,24.37
2024-05-09T09:59:22.657Z,24.34
2024-05-09T10:00:27.437Z,24.39
2024-05-09T10:01:22.863Z,24.44
2024-05-09T10:02:22.856Z,24.37
2024-05-09T10:03:23.171Z,24.39
2024-05-09T10:04:22.842Z,24.39
2024-05-09T10:05:22.935Z,24.41
2024-05-09T10:06:22.917Z,24.48
2024-05-09T10:07:23.007Z,24.45
2024-05-09T10:08:22.930Z,24.44
2024-05-09T10:09:23.011Z,24.41
2024-05-09T10:10:30.195Z,24.46
2024-05-09T10:11:23.146Z,24.48
2024-05-09T10:12:23.065Z,24.49
2024-05-09T10:13:23.160Z,24.52
2024-05-09T10:14:23.128Z,24.45
2024-05-09T10:15:23.132Z,24.49
2024-05-09T10:16:23.519Z,24.48
2024-05-09T10:17:23.210Z,24.48
2024-05-09T10:18:23.550Z,24.45
2024-05-09T10:19:23.347Z,24.49
2024-05-09T10:20:28.039Z,24.49
2024-05-09T10:21:23.310Z,24.49
2024-05-09T10:23:23.636Z,24.53
2024-05-09T10:24:23.402Z,24.60
2024-05-09T10:25:23.673Z,24.55
2024-05-09T10:26:23.465Z,24.60
2024-05-09T10:27:23.496Z,24.60
2024-05-09T10:28:23.575Z,24.60
2024-05-09T10:29:23.563Z,24.60
2024-05-09T10:30:29.644Z,24.61
2024-05-09T10:31:23.649Z,24.61
2024-05-09T10:32:23.692Z,24.67
2024-05-09T10:33:23.734Z,24.64
2024-05-09T10:34:24.112Z,24.56
2024-05-09T10:35:23.745Z,24.60
2024-05-09T10:36:23.808Z,24.59
2024-05-09T10:37:24.141Z,24.59
2024-05-09T10:38:23.895Z,24.61
2024-05-09T10:39:23.910Z,24.56
2024-05-09T10:40:29.349Z,24.68
2024-05-09T10:41:24.016Z,24.74
2024-05-09T10:42:24.073Z,24.74
2024-05-09T10:43:24.170Z,24.68
2024-05-09T10:44:24.303Z,24.74
2024-05-09T10:45:24.091Z,24.75
2024-05-09T10:46:24.139Z,24.74
2024-05-09T10:47:24.877Z,24.71
2024-05-09T10:48:25.739Z,24.71
2024-05-09T10:49:25.753Z,24.75
2024-05-09T10:50:28.779Z,24.74
2024-05-09T10:51:25.198Z,24.82
2024-05-09T10:52:24.346Z,24.80
2024-05-09T10:53:24.329Z,24.80
2024-05-09T10:54:24.363Z,24.80
2024-05-09T10:55:24.429Z,24.79
2024-05-09T10:56:24.424Z,24.79
2024-05-09T10:57:24.455Z,24.79
2024-05-09T10:58:24.779Z,24.80
2024-05-09T10:59:24.516Z,24.80
2024-05-09T11:01:24.714Z,24.84
2024-05-09T11:02:24.835Z,24.83
2024-05-09T11:03:24.720Z,24.84
2024-05-09T11:04:25.038Z,24.87
2024-05-09T11:05:24.861Z,24.89
2024-05-09T11:06:24.751Z,24.82
2024-05-09T11:07:24.885Z,24.86
2024-05-09T11:08:24.815Z,24.77
2024-05-09T11:09:24.851Z,24.77
2024-05-09T11:10:31.747Z,24.89
2024-05-09T11:11:24.973Z,24.87
2024-05-09T11:12:25.082Z,24.93
2024-05-09T11:13:25.011Z,24.90
2024-05-09T11:14:25.019Z,24.89
2024-05-09T11:15:25.051Z,24.89
2024-05-09T11:16:25.416Z,24.86
2024-05-09T11:17:25.280Z,24.89
2024-05-09T11:18:26.624Z,24.90
2024-05-09T14:26:19.394Z,26.73
2024-05-09T14:27:19.381Z,26.72
2024-05-09T14:28:19.702Z,26.73
2024-05-09T14:29:19.446Z,26.83
2024-05-09T14:30:26.296Z,26.83
2024-05-09T14:31:19.558Z,26.84
2024-05-09T14:32:20.080Z,26.93
2024-05-09T14:33:19.666Z,26.93
2024-05-09T14:34:19.850Z,26.93
2024-05-09T14:35:19.734Z,27.01
2024-05-09T14:36:19.817Z,27.01
2024-05-09T14:37:19.756Z,26.98
2024-05-09T14:38:19.985Z,27.05
2024-05-09T14:39:19.751Z,27.02
2024-05-09T14:41:19.833Z,27.12
2024-05-09T14:42:19.893Z,27.11
2024-05-09T14:43:19.954Z,27.08
2024-05-09T14:44:19.923Z,27.23
2024-05-09T14:45:20.261Z,27.18
2024-05-09T14:46:20.159Z,27.27
2024-05-09T14:47:20.161Z,27.30
2024-05-09T14:48:20.262Z,27.31
2024-05-09T14:49:20.351Z,27.28
2024-05-09T14:50:27.788Z,27.40
2024-05-09T14:51:20.148Z,27.43
2024-05-09T14:52:20.511Z,27.42
2024-05-09T14:53:20.232Z,27.43
2024-05-09T14:54:20.270Z,27.42
2024-05-09T14:55:20.325Z,27.53
2024-05-09T14:56:20.331Z,27.45
2024-05-09T14:57:20.403Z,27.45
2024-05-09T14:58:20.735Z,27.45
2024-05-09T14:59:20.673Z,27.45
2024-05-09T15:00:26.065Z,27.38
2024-05-09T15:01:20.762Z,27.39
2024-05-09T15:02:20.640Z,27.49
2024-05-09T15:03:21.696Z,27.46
2024-05-09T15:04:20.676Z,27.48
2024-05-09T15:05:20.675Z,27.52
2024-05-09T15:06:21.020Z,27.55
2024-05-09T15:07:20.745Z,27.46
2024-05-09T15:08:20.740Z,27.46
2024-05-09T15:09:20.761Z,27.49
2024-05-09T15:10:27.311Z,27.48
2024-05-09T15:11:20.889Z,27.48
2024-05-09T15:12:20.888Z,27.50
2024-05-09T15:13:21.513Z,27.48
2024-05-09T15:14:20.959Z,27.48
2024-05-09T15:15:21.016Z,27.39
2024-05-09T15:16:21.117Z,27.40
2024-05-09T15:17:21.044Z,27.40
2024-05-09T15:18:21.274Z,27.50
2024-05-09T15:19:21.392Z,27.34
2024-05-09T15:20:30.366Z,27.45
2024-05-09T15:21:21.235Z,27.45
2024-05-09T15:22:21.273Z,27.45
2024-05-09T15:23:21.260Z,27.45
2024-05-09T15:24:21.317Z,27.43
2024-05-09T15:25:21.485Z,27.38
2024-05-09T15:26:21.391Z,27.42
2024-05-09T15:27:21.735Z,27.40
2024-05-09T15:28:21.711Z,27.42
2024-05-09T15:29:21.463Z,27.38
2024-05-09T15:30:29.914Z,27.46
2024-05-09T15:31:21.557Z,27.39
2024-05-09T15:32:21.610Z,27.45
2024-05-09T15:33:21.726Z,27.46
2024-05-09T15:34:22.040Z,27.49
2024-05-09T15:35:21.674Z,27.50
2024-05-09T15:36:21.716Z,27.61
2024-05-09T15:37:21.896Z,27.53
2024-05-09T15:38:21.786Z,27.62
2024-05-09T15:39:21.813Z,27.62
2024-05-09T15:40:30.898Z,27.63
2024-05-09T15:41:22.151Z,27.66
2024-05-09T15:42:21.913Z,27.69
2024-05-09T15:43:22.098Z,27.72
2024-05-09T15:44:21.982Z,27.78
2024-05-09T15:45:22.024Z,27.69
2024-05-09T15:46:22.279Z,27.74
2024-05-09T15:48:22.434Z,27.74
2024-05-09T15:49:22.390Z,27.74
2024-05-09T15:50:32.009Z,27.77
2024-05-09T15:51:22.397Z,27.77
2024-05-09T15:52:22.275Z,27.78
2024-05-09T15:53:22.303Z,27.80
2024-05-09T15:54:23.660Z,27.74
2024-05-09T15:55:22.445Z,27.72
2024-05-09T15:56:22.815Z,27.84
2024-05-09T15:57:22.470Z,27.81
2024-05-09T15:58:22.558Z,27.76
2024-05-09T15:59:22.517Z,27.77
2024-05-09T16:00:29.092Z,27.76
2024-05-09T16:01:22.724Z,27.76
2024-05-09T16:02:22.876Z,27.71
2024-05-09T16:03:22.667Z,27.76
2024-05-09T16:05:22.834Z,27.65
2024-05-09T16:06:22.765Z,27.66
2024-05-09T16:07:23.104Z,27.62
2024-05-09T16:08:22.835Z,27.69
2024-05-09T16:09:25.505Z,27.63
2024-05-09T16:10:26.198Z,27.52
2024-05-09T16:11:23.035Z,27.48
2024-05-09T16:12:23.044Z,27.50
2024-05-09T16:13:23.375Z,27.46
2024-05-09T16:14:23.063Z,27.39
2024-05-09T16:17:23.267Z,27.38
2024-05-09T16:18:23.265Z,27.35
2024-05-09T16:19:23.342Z,27.31
2024-05-09T16:20:34.250Z,27.23
2024-05-09T16:21:23.304Z,27.21
2024-05-09T16:22:23.363Z,27.16
2024-05-09T16:23:23.372Z,27.20
2024-05-09T16:24:23.409Z,27.11
2024-05-09T16:25:23.488Z,27.21
2024-05-09T16:26:23.679Z,27.05
2024-05-09T16:27:23.808Z,27.06
2024-05-09T16:28:24.706Z,26.97
2024-05-09T16:29:23.586Z,27.11
2024-05-09T16:30:31.490Z,27.02
2024-05-09T16:31:23.824Z,27.03
2024-05-09T16:32:23.788Z,26.97
2024-05-09T16:33:24.029Z,26.93
2024-05-09T16:34:24.240Z,26.93
2024-05-09T16:35:23.796Z,26.90
2024-05-09T16:36:23.824Z,26.88
2024-05-09T16:37:25.846Z,26.87
2024-05-09T16:38:23.898Z,26.78
2024-05-09T16:39:23.922Z,26.73
2024-05-09T16:40:34.193Z,26.72
2024-05-09T16:41:24.292Z,26.73
2024-05-09T16:42:24.059Z,26.71
2024-05-09T16:44:24.490Z,26.64
2024-05-09T16:45:24.152Z,26.59
2024-05-09T16:46:24.303Z,26.47
2024-05-09T16:47:24.389Z,26.54
2024-05-09T16:48:24.586Z,26.46
2024-05-09T16:49:24.342Z,26.50
2024-05-09T16:50:29.482Z,26.49
2024-05-09T16:51:24.461Z,26.39
2024-05-09T16:52:24.488Z,26.39